Time;durP1;ratioP1;P1;durP2;ratioP2;P2;SDS_P1;SDS_P2;PMS_P1;PMS_P2;Temp;Humidity;BMP_temperature;BMP_pressure;BME280_temperature;BME280_humidity;BME280_pressure;Samples;Min_cycle;Max_cycle;Signal;HPM_P1;HPM_P2
2021/12/19 00:01:30;;;;;;;18.07;6.30;;;;;;;;;;5069092;28;20637;-70
2021/12/19 00:04:03;;;;;;;19.47;7.00;;;;;;;;;;5069378;28;20609;-70
2021/12/19 00:09:15;;;;;;;26.50;8.00;;;;;;;;;;5068081;28;20262;-70
2021/12/19 00:11:41;;;;;;;25.03;7.67;;;;;;;;;;5069038;28;20276;-70
2021/12/19 00:14:08;;;;;;;20.87;7.57;;;;;;;;;;5069628;28;20271;-70
2021/12/19 00:16:34;;;;;;;26.13;8.10;;;;;;;;;;5067757;28;20287;-70
2021/12/19 00:19:01;;;;;;;28.33;7.90;;;;;;;;;;5067908;28;20263;-70
2021/12/19 00:21:27;;;;;;;19.17;7.27;;;;;;;;;;5068737;28;20470;-70
2021/12/19 00:23:56;;;;;;;30.30;8.87;;;;;;;;;;5066420;28;20708;-70
2021/12/19 00:26:23;;;;;;;26.50;7.73;;;;;;;;;;5066360;28;20234;-70
2021/12/19 00:28:50;;;;;;;30.00;9.33;;;;;;;;;;5069225;28;20211;-70
2021/12/19 00:31:17;;;;;;;24.50;8.13;;;;;;;;;;5071230;28;20930;-70
2021/12/19 00:33:44;;;;;;;33.40;8.97;;;;;;;;;;5068622;28;20726;-70
2021/12/19 00:36:12;;;;;;;31.67;8.80;;;;;;;;;;5068422;28;20700;-70
2021/12/19 00:38:39;;;;;;;24.87;7.90;;;;;;;;;;5068638;28;20214;-70
2021/12/19 00:41:07;;;;;;;29.33;8.73;;;;;;;;;;5069097;28;20222;-70
2021/12/19 00:43:36;;;;;;;21.67;8.90;;;;;;;;;;5069450;28;20206;-70
2021/12/19 00:46:07;;;;;;;20.27;7.03;;;;;;;;;;5068713;28;20688;-70
2021/12/19 00:48:34;;;;;;;23.03;7.80;;;;;;;;;;5068434;28;20258;-70
2021/12/19 00:51:01;;;;;;;23.13;7.43;;;;;;;;;;5067962;28;20880;-70
2021/12/19 00:53:27;;;;;;;22.83;7.47;;;;;;;;;;5067550;28;20243;-70
2021/12/19 00:55:54;;;;;;;18.20;7.10;;;;;;;;;;5069061;28;20229;-71
2021/12/19 00:58:21;;;;;;;17.40;6.70;;;;;;;;;;5069279;28;20340;-71
2021/12/19 01:00:48;;;;;;;18.57;6.00;;;;;;;;;;5074116;28;20225;-71
2021/12/19 01:03:14;;;;;;;16.27;5.43;;;;;;;;;;5071531;28;20731;-71
2021/12/19 01:05:42;;;;;;;18.80;5.23;;;;;;;;;;5072909;28;20209;-71
2021/12/19 01:08:11;;;;;;;10.57;5.03;;;;;;;;;;5072484;28;20293;-71
2021/12/19 01:10:39;;;;;;;12.47;5.23;;;;;;;;;;5072236;28;20230;-70
2021/12/19 01:13:06;;;;;;;18.07;6.97;;;;;;;;;;5072701;28;20259;-71
2021/12/19 01:15:33;;;;;;;17.37;5.87;;;;;;;;;;5073511;28;20256;-71
2021/12/19 01:18:00;;;;;;;19.47;6.77;;;;;;;;;;5071084;28;20255;-71
2021/12/19 01:20:28;;;;;;;20.47;7.63;;;;;;;;;;5072225;28;20205;-70
2021/12/19 01:22:55;;;;;;;18.83;7.03;;;;;;;;;;5073606;28;20287;-71
2021/12/19 01:25:22;;;;;;;21.80;7.80;;;;;;;;;;5071179;28;20230;-71
2021/12/19 01:27:49;;;;;;;23.37;8.13;;;;;;;;;;5069784;28;20219;-71
2021/12/19 01:30:16;;;;;;;36.73;9.73;;;;;;;;;;5072527;28;20263;-70
2021/12/19 01:32:45;;;;;;;33.97;9.77;;;;;;;;;;5071976;28;20326;-71
2021/12/19 01:35:13;;;;;;;28.90;9.50;;;;;;;;;;5071811;28;20271;-71
2021/12/19 01:37:39;;;;;;;31.87;9.17;;;;;;;;;;5071192;28;20319;-71
2021/12/19 01:40:08;;;;;;;32.20;9.43;;;;;;;;;;5073231;28;20807;-70
2021/12/19 01:42:38;;;;;;;27.83;8.77;;;;;;;;;;5071248;28;20260;-71
2021/12/19 01:45:07;;;;;;;34.73;10.47;;;;;;;;;;5070150;28;20296;-71
2021/12/19 01:47:34;;;;;;;30.40;9.60;;;;;;;;;;5071344;28;20806;-70
2021/12/19 01:50:01;;;;;;;36.13;11.27;;;;;;;;;;5071687;28;20242;-70
2021/12/19 01:52:29;;;;;;;37.50;11.17;;;;;;;;;;5069043;28;20210;-70
2021/12/19 01:54:56;;;;;;;34.80;10.60;;;;;;;;;;5071852;28;20308;-70
2021/12/19 01:57:24;;;;;;;32.30;9.80;;;;;;;;;;5071151;28;20340;-70
2021/12/19 01:59:51;;;;;;;37.83;11.37;;;;;;;;;;5072143;28;20312;-70
2021/12/19 02:02:17;;;;;;;30.30;9.00;;;;;;;;;;5071839;28;20225;-70
2021/12/19 02:04:44;;;;;;;37.33;10.50;;;;;;;;;;5072692;28;20218;-70
2021/12/19 02:07:13;;;;;;;44.47;11.00;;;;;;;;;;5069712;28;21114;-72
2021/12/19 02:09:40;;;;;;;40.07;10.60;;;;;;;;;;5070084;28;20696;-72
2021/12/19 02:12:07;;;;;;;47.47;11.97;;;;;;;;;;5071690;28;20213;-72
2021/12/19 02:14:34;;;;;;;40.37;11.60;;;;;;;;;;5069536;28;20934;-72
2021/12/19 02:17:00;;;;;;;49.80;12.30;;;;;;;;;;5071803;28;20233;-72
2021/12/19 02:19:29;;;;;;;32.90;9.13;;;;;;;;;;5072682;28;20342;-72
2021/12/19 02:21:57;;;;;;;30.20;8.77;;;;;;;;;;5070530;28;20210;-72
2021/12/19 02:24:23;;;;;;;31.50;10.10;;;;;;;;;;5068883;28;20234;-72
2021/12/19 02:26:50;;;;;;;32.30;9.03;;;;;;;;;;5071021;28;20265;-72
2021/12/19 02:29:17;;;;;;;16.03;5.37;;;;;;;;;;5069914;28;20688;-72
2021/12/19 02:31:45;;;;;;;13.93;4.57;;;;;;;;;;5069199;28;20228;-72
2021/12/19 02:34:16;;;;;;;10.23;4.00;;;;;;;;;;5068762;28;20213;-72
2021/12/19 02:36:57;;;;;;;8.17;3.17;;;;;;;;;;5069761;28;20206;-72
2021/12/19 02:50:25;;;;;;;13.03;4.03;;;;;;;;;;5072601;28;21097;-70
2021/12/19 02:52:53;;;;;;;10.50;3.17;;;;;;;;;;5068550;28;20299;-70
2021/12/19 02:55:21;;;;;;;8.07;3.47;;;;;;;;;;5069584;28;20725;-70
2021/12/19 02:57:49;;;;;;;9.73;3.30;;;;;;;;;;5069789;28;20230;-70
2021/12/19 03:00:19;;;;;;;8.17;2.83;;;;;;;;;;5069846;28;20583;-70
2021/12/19 03:02:45;;;;;;;5.40;2.10;;;;;;;;;;5070728;28;20226;-70
2021/12/19 03:05:12;;;;;;;4.90;1.93;;;;;;;;;;5070029;28;20608;-70
2021/12/19 03:07:41;;;;;;;4.83;1.70;;;;;;;;;;5069409;28;20213;-70
2021/12/19 03:10:35;;;;;;;3.90;1.57;;;;;;;;;;5070077;28;20221;-70
2021/12/19 03:13:13;;;;;;;3.87;1.67;;;;;;;;;;5071213;28;20620;-70
2021/12/19 03:18:25;;;;;;;4.07;1.33;;;;;;;;;;5069604;28;21201;-70
2021/12/19 03:20:51;;;;;;;5.27;1.43;;;;;;;;;;5069057;28;20217;-70
2021/12/19 03:23:17;;;;;;;3.33;1.27;;;;;;;;;;5068470;28;20213;-70
2021/12/19 03:25:44;;;;;;;4.80;1.70;;;;;;;;;;5069214;28;20776;-70
2021/12/19 03:28:14;;;;;;;5.70;1.27;;;;;;;;;;5071033;28;20202;-70
2021/12/19 03:30:43;;;;;;;5.80;1.73;;;;;;;;;;5068716;28;20720;-72
2021/12/19 03:33:10;;;;;;;5.73;1.87;;;;;;;;;;5069824;28;20287;-72
2021/12/19 03:35:38;;;;;;;6.57;2.00;;;;;;;;;;5069691;28;20216;-72
2021/12/19 03:38:07;;;;;;;7.63;2.20;;;;;;;;;;5069077;28;20230;-72
2021/12/19 03:40:39;;;;;;;7.40;2.10;;;;;;;;;;5070197;28;20221;-72
2021/12/19 03:43:08;;;;;;;7.73;2.47;;;;;;;;;;5071596;28;20206;-72
2021/12/19 03:45:36;;;;;;;8.03;2.27;;;;;;;;;;5068888;28;20279;-72
2021/12/19 03:48:04;;;;;;;4.97;1.90;;;;;;;;;;5069764;28;20710;-71
2021/12/19 03:50:33;;;;;;;5.97;2.10;;;;;;;;;;5070129;28;20236;-70
2021/12/19 03:53:00;;;;;;;2.50;1.40;;;;;;;;;;5068352;28;20218;-73
2021/12/19 03:55:27;;;;;;;4.03;1.70;;;;;;;;;;5069545;28;20595;-73
2021/12/19 03:57:55;;;;;;;3.77;1.43;;;;;;;;;;5070533;28;20647;-70
2021/12/19 04:00:24;;;;;;;4.83;1.50;;;;;;;;;;5069762;28;20214;-70
2021/12/19 04:02:53;;;;;;;6.27;1.83;;;;;;;;;;5070071;28;20458;-70
2021/12/19 04:05:20;;;;;;;3.30;1.63;;;;;;;;;;5068923;28;20225;-70
2021/12/19 04:07:46;;;;;;;4.67;1.73;;;;;;;;;;5071073;28;20220;-70
2021/12/19 04:10:13;;;;;;;4.03;1.63;;;;;;;;;;5067901;28;20596;-70
2021/12/19 04:12:39;;;;;;;3.57;2.00;;;;;;;;;;5069621;28;20636;-70
2021/12/19 04:15:06;;;;;;;6.50;3.00;;;;;;;;;;5069179;28;20260;-70
2021/12/19 04:17:33;;;;;;;7.90;3.60;;;;;;;;;;5068458;28;20230;-70
2021/12/19 04:20:01;;;;;;;7.10;3.30;;;;;;;;;;5067722;28;20213;-70
2021/12/19 04:22:28;;;;;;;8.47;3.67;;;;;;;;;;5069938;28;20221;-71
2021/12/19 04:24:54;;;;;;;8.47;2.97;;;;;;;;;;5067996;28;20241;-71
2021/12/19 04:27:21;;;;;;;7.93;3.10;;;;;;;;;;5069305;28;20315;-71
2021/12/19 04:29:49;;;;;;;10.23;2.83;;;;;;;;;;5066940;28;20210;-71
2021/12/19 04:32:17;;;;;;;3.40;1.70;;;;;;;;;;5070766;28;20233;-71
2021/12/19 04:34:44;;;;;;;3.70;2.10;;;;;;;;;;5069841;28;20217;-70
2021/12/19 04:37:31;;;;;;;3.13;1.33;;;;;;;;;;5069184;28;20209;-70
2021/12/19 04:40:05;;;;;;;4.57;1.13;;;;;;;;;;5069509;28;20315;-71
2021/12/19 04:51:11;;;;;;;7.07;2.10;;;;;;;;;;5067860;28;20247;-70
2021/12/19 04:53:52;;;;;;;8.00;2.33;;;;;;;;;;5069603;28;20749;-70
2021/12/19 04:56:32;;;;;;;10.17;2.57;;;;;;;;;;5067497;28;20221;-70
2021/12/19 04:59:25;;;;;;;7.47;2.33;;;;;;;;;;5068756;28;20222;-70
2021/12/19 05:02:11;;;;;;;6.37;2.47;;;;;;;;;;5069917;28;20244;-70
2021/12/19 05:15:38;;;;;;;6.03;1.70;;;;;;;;;;5067399;28;20235;-71
2021/12/19 05:18:05;;;;;;;5.63;1.60;;;;;;;;;;5067200;28;20320;-71
2021/12/19 05:20:33;;;;;;;5.70;1.70;;;;;;;;;;5068554;28;21083;-71
2021/12/19 05:23:05;;;;;;;4.67;1.60;;;;;;;;;;5067218;28;20351;-70
2021/12/19 05:25:33;;;;;;;3.00;1.17;;;;;;;;;;5068016;28;20230;-70
2021/12/19 05:28:00;;;;;;;2.73;1.07;;;;;;;;;;5068898;28;20235;-70
2021/12/19 05:30:27;;;;;;;3.97;1.60;;;;;;;;;;5067640;28;20222;-74
2021/12/19 05:32:55;;;;;;;4.60;1.37;;;;;;;;;;5070118;28;20261;-74
2021/12/19 05:35:31;;;;;;;4.70;2.27;;;;;;;;;;5069954;28;20217;-74
2021/12/19 05:46:23;;;;;;;5.70;3.23;;;;;;;;;;5071948;28;20228;-74
2021/12/19 05:48:49;;;;;;;7.47;2.83;;;;;;;;;;5072498;28;20303;-75
2021/12/19 05:51:16;;;;;;;6.83;2.63;;;;;;;;;;5069364;28;20213;-74
2021/12/19 05:53:42;;;;;;;4.27;1.40;;;;;;;;;;5072821;28;20214;-75
2021/12/19 05:56:10;;;;;;;2.40;1.27;;;;;;;;;;5071268;28;20699;-75
2021/12/19 05:58:37;;;;;;;2.53;1.27;;;;;;;;;;5071562;28;20802;-75
2021/12/19 06:01:04;;;;;;;3.70;1.30;;;;;;;;;;5072524;28;20238;-75
2021/12/19 06:03:31;;;;;;;4.23;1.20;;;;;;;;;;5073793;28;20216;-75
2021/12/19 06:05:58;;;;;;;3.57;1.50;;;;;;;;;;5073025;28;20206;-75
2021/12/19 06:08:24;;;;;;;6.33;1.60;;;;;;;;;;5070829;28;20243;-75
2021/12/19 06:10:50;;;;;;;4.03;1.40;;;;;;;;;;5071714;28;20234;-75
2021/12/19 06:13:18;;;;;;;5.07;1.90;;;;;;;;;;5073246;28;20307;-75
2021/12/19 06:15:44;;;;;;;5.23;1.57;;;;;;;;;;5071169;28;20234;-74
2021/12/19 06:18:11;;;;;;;3.40;1.60;;;;;;;;;;5070372;28;20283;-74
2021/12/19 06:20:37;;;;;;;3.03;1.20;;;;;;;;;;5072087;28;21176;-73
2021/12/19 06:23:04;;;;;;;3.30;1.00;;;;;;;;;;5071831;28;20291;-75
2021/12/19 06:25:30;;;;;;;4.53;1.10;;;;;;;;;;5070624;28;20238;-74
2021/12/19 06:27:57;;;;;;;4.93;0.80;;;;;;;;;;5070669;28;20806;-74
2021/12/19 06:30:24;;;;;;;3.90;1.40;;;;;;;;;;5070487;28;21195;-75
2021/12/19 06:32:51;;;;;;;4.63;0.90;;;;;;;;;;5071750;28;20263;-76
2021/12/19 06:35:19;;;;;;;5.10;1.27;;;;;;;;;;5071683;28;20214;-75
2021/12/19 06:37:46;;;;;;;3.70;1.30;;;;;;;;;;5070749;28;20233;-74
2021/12/19 06:40:15;;;;;;;3.70;1.10;;;;;;;;;;5069940;28;20660;-74
2021/12/19 06:42:42;;;;;;;6.63;2.40;;;;;;;;;;5072445;28;20286;-74
2021/12/19 06:45:09;;;;;;;2.07;1.30;;;;;;;;;;5070459;28;20217;-76
2021/12/19 06:47:37;;;;;;;6.20;1.70;;;;;;;;;;5069970;28;20319;-76
2021/12/19 06:50:06;;;;;;;2.67;1.27;;;;;;;;;;5071064;28;20225;-74
2021/12/19 06:52:33;;;;;;;5.30;1.80;;;;;;;;;;5071291;28;20593;-74
2021/12/19 06:54:59;;;;;;;5.07;1.77;;;;;;;;;;5072044;28;20229;-74
2021/12/19 06:57:26;;;;;;;5.07;1.97;;;;;;;;;;5071936;28;20222;-74
2021/12/19 06:59:52;;;;;;;4.97;1.60;;;;;;;;;;5069279;28;20719;-75
2021/12/19 07:02:19;;;;;;;3.83;1.70;;;;;;;;;;5069598;28;20954;-74
2021/12/19 07:04:47;;;;;;;3.07;1.53;;;;;;;;;;5070491;28;20932;-74
2021/12/19 07:07:13;;;;;;;6.47;2.03;;;;;;;;;;5068011;28;20214;-74
2021/12/19 07:09:40;;;;;;;4.60;1.90;;;;;;;;;;5068017;28;20229;-75
2021/12/19 07:12:09;;;;;;;5.43;2.43;;;;;;;;;;5068899;28;20210;-77
2021/12/19 07:14:35;;;;;;;6.37;2.20;;;;;;;;;;5068618;28;20846;-74
2021/12/19 07:17:02;;;;;;;7.43;2.27;;;;;;;;;;5069066;28;20938;-75
2021/12/19 07:19:29;;;;;;;6.47;2.80;;;;;;;;;;5067718;28;20799;-76
2021/12/19 07:21:57;;;;;;;7.37;2.20;;;;;;;;;;5069150;28;20221;-75
2021/12/19 07:24:23;;;;;;;5.53;2.47;;;;;;;;;;5067020;28;20977;-77
2021/12/19 07:26:50;;;;;;;6.57;2.47;;;;;;;;;;5069877;28;20293;-75
2021/12/19 07:29:17;;;;;;;4.10;2.07;;;;;;;;;;5067256;28;20612;-75
2021/12/19 07:31:44;;;;;;;6.20;2.80;;;;;;;;;;5068858;28;20232;-75
2021/12/19 07:34:10;;;;;;;7.37;2.80;;;;;;;;;;5067489;28;20667;-75
2021/12/19 07:36:42;;;;;;;11.90;3.40;;;;;;;;;;5067956;28;20221;-75
2021/12/19 07:39:21;;;;;;;8.20;3.83;;;;;;;;;;5067724;28;20218;-77
2021/12/19 07:41:47;;;;;;;8.67;3.70;;;;;;;;;;5068565;28;20210;-75
2021/12/19 07:44:13;;;;;;;6.83;3.13;;;;;;;;;;5067111;28;20290;-75
2021/12/19 07:46:40;;;;;;;10.27;3.93;;;;;;;;;;5065994;28;20230;-74
2021/12/19 07:49:06;;;;;;;10.33;4.60;;;;;;;;;;5063721;28;20233;-75
2021/12/19 07:51:33;;;;;;;9.90;4.20;;;;;;;;;;5066365;28;20210;-77
2021/12/19 07:53:59;;;;;;;7.80;4.17;;;;;;;;;;5066954;28;20208;-76
2021/12/19 07:56:27;;;;;;;9.23;4.73;;;;;;;;;;5067634;28;20226;-76
2021/12/19 07:58:54;;;;;;;10.40;4.20;;;;;;;;;;5066900;28;20229;-76
2021/12/19 08:01:20;;;;;;;10.43;5.50;;;;;;;;;;5067773;28;20233;-76
2021/12/19 08:03:47;;;;;;;15.00;5.23;;;;;;;;;;5066892;28;20219;-76
2021/12/19 08:06:13;;;;;;;10.70;5.17;;;;;;;;;;5068099;28;20222;-78
2021/12/19 08:08:46;;;;;;;14.87;5.80;;;;;;;;;;5068012;28;20656;-78
2021/12/19 08:13:58;;;;;;;11.10;4.93;;;;;;;;;;5069379;28;20583;-76
2021/12/19 08:16:25;;;;;;;12.80;5.60;;;;;;;;;;5067262;28;20229;-76
2021/12/19 08:18:52;;;;;;;11.73;5.43;;;;;;;;;;5069604;28;20233;-77
2021/12/19 08:21:19;;;;;;;16.20;5.07;;;;;;;;;;5064988;28;20626;-77
2021/12/19 08:23:46;;;;;;;13.83;5.40;;;;;;;;;;5069207;28;20260;-76
2021/12/19 08:26:12;;;;;;;13.13;4.77;;;;;;;;;;5062777;28;20232;-76
2021/12/19 08:28:41;;;;;;;15.93;5.57;;;;;;;;;;5066650;28;20219;-76
2021/12/19 08:31:09;;;;;;;9.40;4.80;;;;;;;;;;5064163;28;21024;-77
2021/12/19 08:33:35;;;;;;;13.73;5.40;;;;;;;;;;5064739;28;20217;-76
2021/12/19 08:36:02;;;;;;;13.43;5.63;;;;;;;;;;5067336;28;20224;-77
2021/12/19 08:38:29;;;;;;;21.40;6.43;;;;;;;;;;5065960;28;20205;-77
2021/12/19 08:40:56;;;;;;;17.60;6.93;;;;;;;;;;5064639;28;20232;-77
2021/12/19 08:43:22;;;;;;;16.07;6.73;;;;;;;;;;5066447;28;20465;-77
2021/12/19 08:45:49;;;;;;;23.10;6.83;;;;;;;;;;5067362;28;20234;-76
2021/12/19 08:48:18;;;;;;;14.17;5.50;;;;;;;;;;5071817;28;20271;-78
2021/12/19 08:50:45;;;;;;;13.53;4.67;;;;;;;;;;5069249;28;20213;-78
2021/12/19 08:53:11;;;;;;;12.63;4.50;;;;;;;;;;5069199;28;20273;-76
2021/12/19 08:55:38;;;;;;;11.80;4.37;;;;;;;;;;5066772;28;21106;-78
2021/12/19 08:58:05;;;;;;;10.80;4.93;;;;;;;;;;5068717;28;20990;-78
2021/12/19 09:00:33;;;;;;;14.67;5.93;;;;;;;;;;5070166;28;20229;-78
2021/12/19 09:03:01;;;;;;;14.60;5.53;;;;;;;;;;5068704;28;21312;-77
2021/12/19 09:05:30;;;;;;;17.10;5.33;;;;;;;;;;5065353;28;20240;-77
2021/12/19 09:07:56;;;;;;;19.93;6.00;;;;;;;;;;5065412;28;20206;-77
2021/12/19 09:10:23;;;;;;;15.10;5.83;;;;;;;;;;5065655;28;20226;-76
2021/12/19 09:12:50;;;;;;;15.77;5.73;;;;;;;;;;5066355;28;20395;-77
2021/12/19 09:15:17;;;;;;;13.87;5.33;;;;;;;;;;5066077;28;20224;-77
2021/12/19 09:17:43;;;;;;;13.13;6.27;;;;;;;;;;5063341;28;20226;-77
2021/12/19 09:20:12;;;;;;;18.60;5.17;;;;;;;;;;5068923;28;20235;-78
2021/12/19 09:22:40;;;;;;;17.10;5.60;;;;;;;;;;5069158;28;20229;-77
2021/12/19 09:25:08;;;;;;;11.60;5.03;;;;;;;;;;5066797;28;20253;-77
2021/12/19 09:27:35;;;;;;;12.93;4.87;;;;;;;;;;5072378;28;20210;-77
2021/12/19 09:30:01;;;;;;;11.70;4.27;;;;;;;;;;5068265;28;20210;-77
2021/12/19 09:32:28;;;;;;;13.50;4.57;;;;;;;;;;5070604;28;21201;-77
2021/12/19 09:34:54;;;;;;;11.23;4.00;;;;;;;;;;5070190;28;20201;-76
2021/12/19 09:37:21;;;;;;;14.13;5.37;;;;;;;;;;5070761;28;20962;-76
2021/12/19 09:39:50;;;;;;;14.03;4.90;;;;;;;;;;5069849;28;20323;-77
2021/12/19 09:42:20;;;;;;;12.37;3.93;;;;;;;;;;5070369;28;20270;-77
2021/12/19 09:44:47;;;;;;;9.47;3.50;;;;;;;;;;5069404;28;20341;-76
2021/12/19 09:47:14;;;;;;;11.80;4.37;;;;;;;;;;5068758;28;20705;-77
2021/12/19 09:49:41;;;;;;;13.83;4.40;;;;;;;;;;5072171;28;21074;-76
2021/12/19 09:52:09;;;;;;;11.80;4.57;;;;;;;;;;5069991;28;20215;-77
2021/12/19 09:54:36;;;;;;;13.20;3.80;;;;;;;;;;5070845;28;20226;-76
2021/12/19 09:57:05;;;;;;;6.30;2.83;;;;;;;;;;5068482;28;20318;-76
2021/12/19 09:59:32;;;;;;;8.67;2.93;;;;;;;;;;5069841;28;20957;-76
2021/12/19 10:01:59;;;;;;;7.50;2.83;;;;;;;;;;5070778;28;20226;-76
2021/12/19 10:04:35;;;;;;;5.93;3.00;;;;;;;;;;5070804;28;21112;-76
2021/12/19 10:07:08;;;;;;;10.77;3.57;;;;;;;;;;5069881;28;20217;-77
2021/12/19 10:09:37;;;;;;;9.60;2.70;;;;;;;;;;5070709;28;20203;-76
2021/12/19 10:12:36;;;;;;;7.80;2.77;;;;;;;;;;5071190;28;20708;-76
2021/12/19 10:15:05;;;;;;;8.83;3.07;;;;;;;;;;5070046;28;20703;-76
2021/12/19 10:17:31;;;;;;;7.20;2.37;;;;;;;;;;5069372;28;20222;-77
2021/12/19 10:19:59;;;;;;;8.63;3.40;;;;;;;;;;5069045;28;20230;-78
2021/12/19 10:22:28;;;;;;;8.90;3.53;;;;;;;;;;5069917;28;20206;-77
2021/12/19 10:24:56;;;;;;;10.03;3.67;;;;;;;;;;5067419;28;20570;-77
2021/12/19 10:27:35;;;;;;;7.23;2.37;;;;;;;;;;5070986;28;20288;-79
2021/12/19 10:30:04;;;;;;;7.80;3.00;;;;;;;;;;5072339;28;20212;-78
2021/12/19 10:32:30;;;;;;;6.77;2.37;;;;;;;;;;5070419;28;20242;-78
2021/12/19 10:35:17;;;;;;;5.87;2.50;;;;;;;;;;5071729;28;20729;-76
2021/12/19 10:37:44;;;;;;;7.33;2.83;;;;;;;;;;5073905;28;20597;-78
2021/12/19 10:40:11;;;;;;;8.20;2.87;;;;;;;;;;5071392;28;20344;-78
2021/12/19 10:42:48;;;;;;;7.47;3.63;;;;;;;;;;5072598;28;20744;-78
2021/12/19 10:45:32;;;;;;;8.10;3.27;;;;;;;;;;5072052;28;21038;-78
2021/12/19 10:48:26;;;;;;;13.20;3.50;;;;;;;;;;5072838;28;20742;-78
2021/12/19 10:50:56;;;;;;;11.07;3.30;;;;;;;;;;5070973;28;20213;-78
2021/12/19 10:53:27;;;;;;;13.37;3.67;;;;;;;;;;5071631;28;20213;-78
2021/12/19 10:55:55;;;;;;;10.90;4.00;;;;;;;;;;5071405;28;20432;-78
2021/12/19 10:58:26;;;;;;;10.17;4.30;;;;;;;;;;5068735;28;20712;-77
2021/12/19 11:00:58;;;;;;;9.87;4.47;;;;;;;;;;5070666;28;20676;-77
2021/12/19 11:03:37;;;;;;;9.20;3.83;;;;;;;;;;5068651;28;20263;-77
2021/12/19 11:06:15;;;;;;;12.10;4.20;;;;;;;;;;5069412;28;20222;-78
2021/12/19 11:08:42;;;;;;;12.73;3.90;;;;;;;;;;5070817;28;20258;-78
2021/12/19 11:11:09;;;;;;;10.37;3.47;;;;;;;;;;5068722;28;20226;-77
2021/12/19 11:13:37;;;;;;;13.37;4.43;;;;;;;;;;5067835;28;20205;-77
2021/12/19 11:16:05;;;;;;;9.60;4.97;;;;;;;;;;5070504;28;20228;-77
2021/12/19 11:18:32;;;;;;;10.93;4.63;;;;;;;;;;5068883;28;20202;-76
2021/12/19 11:20:59;;;;;;;12.73;4.47;;;;;;;;;;5069448;28;20243;-76
2021/12/19 11:23:26;;;;;;;15.77;4.90;;;;;;;;;;5069421;28;20210;-76
2021/12/19 11:25:54;;;;;;;14.93;4.50;;;;;;;;;;5065016;28;20821;-76
2021/12/19 11:28:21;;;;;;;11.00;4.83;;;;;;;;;;5067746;28;20255;-76
2021/12/19 11:30:49;;;;;;;8.67;3.93;;;;;;;;;;5067255;28;20241;-76
2021/12/19 11:33:26;;;;;;;8.47;4.10;;;;;;;;;;5067128;28;20252;-76
2021/12/19 11:35:56;;;;;;;11.73;4.10;;;;;;;;;;5067854;28;20209;-76
2021/12/19 11:38:24;;;;;;;9.53;3.70;;;;;;;;;;5065267;28;20205;-77
2021/12/19 11:40:52;;;;;;;9.27;5.10;;;;;;;;;;5068537;28;20427;-76
2021/12/19 11:43:19;;;;;;;10.73;4.97;;;;;;;;;;5065541;28;20324;-76
2021/12/19 11:45:52;;;;;;;11.70;3.83;;;;;;;;;;5068277;28;21077;-77
2021/12/19 11:48:25;;;;;;;11.40;4.20;;;;;;;;;;5066831;28;20293;-76
2021/12/19 11:50:53;;;;;;;9.67;3.30;;;;;;;;;;5067419;28;20273;-76
2021/12/19 11:53:23;;;;;;;8.63;2.93;;;;;;;;;;5068035;28;20205;-76
2021/12/19 11:55:52;;;;;;;9.47;3.50;;;;;;;;;;5064157;28;20979;-77
2021/12/19 11:58:28;;;;;;;8.43;4.00;;;;;;;;;;5070132;28;20318;-77
2021/12/19 12:00:57;;;;;;;12.50;4.10;;;;;;;;;;5068583;28;20252;-78
2021/12/19 12:03:35;;;;;;;9.47;3.97;;;;;;;;;;5069411;28;20202;-78
2021/12/19 12:06:24;;;;;;;9.00;3.47;;;;;;;;;;5069040;28;20944;-77
2021/12/19 12:09:09;;;;;;;10.50;4.33;;;;;;;;;;5071951;28;20340;-78
2021/12/19 12:11:37;;;;;;;9.57;3.70;;;;;;;;;;5069025;28;20748;-77
2021/12/19 12:14:30;;;;;;;7.07;3.90;;;;;;;;;;5067921;28;20683;-78
2021/12/19 12:17:01;;;;;;;10.53;3.87;;;;;;;;;;5048799;28;20229;-78
2021/12/19 12:19:40;;;;;;;13.00;4.77;;;;;;;;;;5067822;28;20366;-76
2021/12/19 12:22:35;;;;;;;10.90;3.10;;;;;;;;;;5065661;28;20232;-76
2021/12/19 12:25:11;;;;;;;12.10;3.40;;;;;;;;;;5066986;28;20233;-76
2021/12/19 12:27:39;;;;;;;13.90;3.77;;;;;;;;;;5067135;28;20227;-75
2021/12/19 12:30:08;;;;;;;12.27;3.70;;;;;;;;;;5067540;28;20695;-76
2021/12/19 12:32:35;;;;;;;10.47;3.00;;;;;;;;;;5066435;28;20221;-76
2021/12/19 12:35:03;;;;;;;10.43;3.60;;;;;;;;;;5065568;28;20291;-76
2021/12/19 12:37:30;;;;;;;10.10;3.57;;;;;;;;;;5067169;28;20213;-76
2021/12/19 12:40:23;;;;;;;9.57;3.27;;;;;;;;;;5066089;28;20295;-76
2021/12/19 12:43:08;;;;;;;12.30;2.97;;;;;;;;;;5067816;28;20868;-76
2021/12/19 12:45:52;;;;;;;8.70;3.00;;;;;;;;;;5067551;28;20275;-76
2021/12/19 12:48:31;;;;;;;9.00;2.63;;;;;;;;;;5066972;28;20209;-76
2021/12/19 12:51:00;;;;;;;12.03;3.30;;;;;;;;;;5066368;28;20536;-76
2021/12/19 12:53:31;;;;;;;12.47;3.67;;;;;;;;;;5066908;28;20205;-76
2021/12/19 12:56:05;;;;;;;12.33;2.83;;;;;;;;;;5068977;28;20283;-78
2021/12/19 12:58:35;;;;;;;9.50;2.80;;;;;;;;;;5071708;28;20644;-77
2021/12/19 13:01:23;;;;;;;9.97;3.23;;;;;;;;;;5071117;28;20241;-77
2021/12/19 13:04:02;;;;;;;8.33;2.93;;;;;;;;;;5070167;28;20212;-77
2021/12/19 13:06:38;;;;;;;13.53;3.70;;;;;;;;;;5070993;28;20223;-78
2021/12/19 13:09:13;;;;;;;9.50;2.70;;;;;;;;;;5072924;28;20213;-78
2021/12/19 13:11:41;;;;;;;6.00;3.07;;;;;;;;;;5071405;28;20237;-78
2021/12/19 13:14:16;;;;;;;9.07;3.10;;;;;;;;;;5069440;28;20226;-76
2021/12/19 13:16:44;;;;;;;15.40;3.90;;;;;;;;;;5071916;28;20221;-75
2021/12/19 13:19:11;;;;;;;12.33;3.43;;;;;;;;;;5069962;28;21132;-77
2021/12/19 13:21:55;;;;;;;10.27;3.53;;;;;;;;;;5072159;28;20221;-78
2021/12/19 13:24:22;;;;;;;12.37;4.13;;;;;;;;;;5069564;28;20638;-78
2021/12/19 13:26:48;;;;;;;15.10;4.10;;;;;;;;;;5073677;28;20218;-78
2021/12/19 13:29:18;;;;;;;7.53;4.00;;;;;;;;;;5073133;28;20214;-78
2021/12/19 13:31:45;;;;;;;19.53;5.07;;;;;;;;;;5071628;28;20344;-77
2021/12/19 13:34:13;;;;;;;10.47;4.57;;;;;;;;;;5071734;28;20198;-78
2021/12/19 13:36:40;;;;;;;12.53;4.87;;;;;;;;;;5072990;28;20296;-78
2021/12/19 13:39:18;;;;;;;18.03;6.57;;;;;;;;;;5071925;28;20209;-78
2021/12/19 13:41:44;;;;;;;10.57;5.00;;;;;;;;;;5071498;28;20249;-78
2021/12/19 13:44:11;;;;;;;20.03;5.50;;;;;;;;;;5069391;28;20241;-77
2021/12/19 13:46:37;;;;;;;13.03;4.40;;;;;;;;;;5068710;28;20221;-77
2021/12/19 13:49:04;;;;;;;15.37;4.87;;;;;;;;;;5069741;28;20246;-77
2021/12/19 13:51:34;;;;;;;13.17;4.50;;;;;;;;;;5069927;28;20210;-77
2021/12/19 13:54:02;;;;;;;16.67;3.93;;;;;;;;;;5070629;28;20205;-76
2021/12/19 13:56:33;;;;;;;11.43;4.23;;;;;;;;;;5069890;28;20242;-77
2021/12/19 13:59:01;;;;;;;15.33;5.23;;;;;;;;;;5070218;28;20208;-77
2021/12/19 14:01:30;;;;;;;16.57;4.17;;;;;;;;;;5070663;28;20701;-77
2021/12/19 14:03:59;;;;;;;12.73;3.53;;;;;;;;;;5072145;28;20213;-77
2021/12/19 14:06:29;;;;;;;14.73;3.77;;;;;;;;;;5069977;28;20386;-77
2021/12/19 14:08:57;;;;;;;14.83;4.40;;;;;;;;;;5069598;28;20755;-77
2021/12/19 14:11:24;;;;;;;13.60;4.10;;;;;;;;;;5067409;28;20286;-77
2021/12/19 14:14:05;;;;;;;13.57;3.53;;;;;;;;;;5069563;28;21380;-77
2021/12/19 14:16:35;;;;;;;13.63;4.07;;;;;;;;;;5069415;28;20252;-77
2021/12/19 14:19:14;;;;;;;10.70;3.47;;;;;;;;;;5070603;28;20214;-77
2021/12/19 14:21:42;;;;;;;14.03;4.07;;;;;;;;;;5071160;28;20217;-76
2021/12/19 14:24:18;;;;;;;11.17;3.50;;;;;;;;;;5067850;28;20303;-76
2021/12/19 14:26:46;;;;;;;12.00;3.57;;;;;;;;;;5072003;28;20224;-77
2021/12/19 14:29:23;;;;;;;11.40;3.70;;;;;;;;;;5068106;28;20205;-77
2021/12/19 14:31:52;;;;;;;14.80;3.43;;;;;;;;;;5069721;28;20231;-76
2021/12/19 14:34:20;;;;;;;13.00;4.87;;;;;;;;;;5070577;28;20211;-77
2021/12/19 14:36:48;;;;;;;10.00;3.00;;;;;;;;;;5068488;28;20255;-77
2021/12/19 14:39:15;;;;;;;11.47;3.83;;;;;;;;;;5067883;28;20214;-77
2021/12/19 14:41:42;;;;;;;10.53;2.83;;;;;;;;;;5070012;28;20240;-77
2021/12/19 14:44:18;;;;;;;13.80;3.57;;;;;;;;;;5069861;28;20271;-77
2021/12/19 14:46:46;;;;;;;13.43;3.00;;;;;;;;;;5068918;28;20677;-76
2021/12/19 14:49:13;;;;;;;16.77;2.83;;;;;;;;;;5068810;28;21086;-77
2021/12/19 14:51:40;;;;;;;10.50;3.77;;;;;;;;;;5069974;28;20218;-76
2021/12/19 14:54:08;;;;;;;15.63;2.87;;;;;;;;;;5068694;28;20206;-77
2021/12/19 14:56:35;;;;;;;9.63;2.83;;;;;;;;;;5068649;28;20250;-76
2021/12/19 14:59:04;;;;;;;12.23;3.00;;;;;;;;;;5068944;28;20481;-76
2021/12/19 15:01:32;;;;;;;13.00;2.63;;;;;;;;;;5070394;28;20288;-76
2021/12/19 15:04:02;;;;;;;10.80;2.73;;;;;;;;;;5069794;28;20212;-76
2021/12/19 15:06:31;;;;;;;12.13;2.63;;;;;;;;;;5068622;28;20301;-76
2021/12/19 15:08:59;;;;;;;11.73;3.20;;;;;;;;;;5070828;28;20286;-76
2021/12/19 15:11:27;;;;;;;14.10;3.27;;;;;;;;;;5068119;28;20228;-76
2021/12/19 15:13:54;;;;;;;12.67;2.63;;;;;;;;;;5068916;28;20301;-77
2021/12/19 15:16:21;;;;;;;12.80;3.00;;;;;;;;;;5068129;28;20296;-77
2021/12/19 15:18:47;;;;;;;14.60;3.90;;;;;;;;;;5067990;28;20210;-76
2021/12/19 15:21:16;;;;;;;9.27;2.83;;;;;;;;;;5069128;28;20280;-76
2021/12/19 15:23:43;;;;;;;9.60;3.77;;;;;;;;;;5065755;28;20210;-76
2021/12/19 15:26:14;;;;;;;9.97;3.40;;;;;;;;;;5066652;28;20221;-76
2021/12/19 15:28:41;;;;;;;11.47;3.23;;;;;;;;;;5067961;28;20569;-76
2021/12/19 15:31:08;;;;;;;7.90;2.60;;;;;;;;;;5069942;28;20777;-76
2021/12/19 15:33:34;;;;;;;12.33;2.67;;;;;;;;;;5070108;28;20206;-75
2021/12/19 15:36:00;;;;;;;11.10;3.33;;;;;;;;;;5068723;28;20228;-75